Time;durP1;ratioP1;P1;durP2;ratioP2;P2;SDS_P1;SDS_P2;PMS_P1;PMS_P2;Temp;Humidity;BMP_temperature;BMP_pressure;BME280_temperature;BME280_humidity;BME280_pressure;Samples;Min_cycle;Max_cycle;Signal;HPM_P1;HPM_P2
2023/08/25 00:01:52;;;;;;;7.38;6.00;;;27.50;99.90;;;;;;6245891;27;89044;-69
2023/08/25 00:04:54;;;;;;;6.93;6.05;;;27.50;99.90;;;;;;6252114;27;89379;-70
2023/08/25 00:07:57;;;;;;;7.47;6.07;;;27.50;99.90;;;;;;6251282;27;89981;-69
2023/08/25 00:11:00;;;;;;;6.40;5.80;;;27.50;99.90;;;;;;6238819;27;87955;-70
2023/08/25 00:14:02;;;;;;;6.53;5.00;;;27.50;99.90;;;;;;6245543;27;89107;-69
2023/08/25 00:17:04;;;;;;;5.53;3.97;;;27.50;99.90;;;;;;6244042;27;89095;-69
2023/08/25 00:20:10;;;;;;;3.97;3.58;;;27.40;99.90;;;;;;6240953;27;89072;-70
2023/08/25 00:23:13;;;;;;;5.40;3.25;;;27.50;99.90;;;;;;6243247;28;89814;-69
2023/08/25 00:26:15;;;;;;;4.78;2.60;;;27.40;99.90;;;;;;6242959;28;89107;-70
2023/08/25 00:29:18;;;;;;;4.25;2.10;;;27.40;99.90;;;;;;6249063;28;88450;-69
2023/08/25 00:32:20;;;;;;;3.78;2.38;;;27.40;99.90;;;;;;6241979;28;89158;-69
2023/08/25 00:35:23;;;;;;;3.92;2.45;;;27.40;99.90;;;;;;6241834;28;89121;-70
2023/08/25 00:38:28;;;;;;;3.95;2.30;;;27.40;99.90;;;;;;6235384;28;90053;-69
2023/08/25 00:41:30;;;;;;;4.88;2.33;;;27.40;99.90;;;;;;6237815;28;88377;-69
2023/08/25 00:44:32;;;;;;;2.83;2.08;;;27.40;99.90;;;;;;6239573;28;89169;-69
2023/08/25 00:47:34;;;;;;;2.95;1.98;;;27.30;99.90;;;;;;6240552;28;89456;-69
2023/08/25 00:50:36;;;;;;;4.20;1.90;;;27.40;99.90;;;;;;6234851;28;89333;-69
2023/08/25 00:53:41;;;;;;;2.72;1.92;;;27.30;99.90;;;;;;6241771;28;89176;-69
2023/08/25 00:56:44;;;;;;;3.25;1.80;;;27.30;99.90;;;;;;6241098;28;89417;-69
2023/08/25 00:59:46;;;;;;;4.57;2.10;;;27.30;99.90;;;;;;6234817;28;88768;-69
2023/08/25 01:02:48;;;;;;;4.10;1.83;;;27.30;99.90;;;;;;6246106;28;89065;-69
2023/08/25 01:05:51;;;;;;;4.68;2.53;;;27.30;99.90;;;;;;6240787;28;89148;-69
2023/08/25 01:08:54;;;;;;;4.70;2.00;;;27.30;99.90;;;;;;6239327;28;90345;-69
2023/08/25 01:12:04;;;;;;;3.30;1.83;;;27.30;99.90;;;;;;6244093;28;89113;-69
2023/08/25 01:15:13;;;;;;;3.65;2.08;;;27.20;99.90;;;;;;6228854;28;88088;-69
2023/08/25 01:18:19;;;;;;;2.67;1.90;;;27.20;99.90;;;;;;6250325;28;89497;-69
2023/08/25 01:21:22;;;;;;;3.30;1.73;;;27.20;99.90;;;;;;6245287;27;89450;-70
2023/08/25 01:24:30;;;;;;;3.03;2.15;;;27.20;99.90;;;;;;6241272;28;89059;-69
2023/08/25 01:27:34;;;;;;;3.33;2.05;;;27.20;99.90;;;;;;6243239;28;89440;-69
2023/08/25 01:30:37;;;;;;;5.05;2.10;;;27.20;99.90;;;;;;6244950;27;88479;-69
2023/08/25 01:33:44;;;;;;;3.67;2.10;;;27.00;99.90;;;;;;6232164;28;89057;-69
2023/08/25 01:36:54;;;;;;;3.95;1.98;;;27.00;99.90;;;;;;6240549;28;89290;-69
2023/08/25 01:40:04;;;;;;;3.03;1.92;;;26.90;99.90;;;;;;6249422;28;90138;-69
2023/08/25 01:43:12;;;;;;;4.57;2.10;;;26.90;99.90;;;;;;6232065;28;89258;-69
2023/08/25 01:46:16;;;;;;;3.83;2.15;;;26.90;99.90;;;;;;6236841;28;89007;-69
2023/08/25 01:49:20;;;;;;;3.58;2.00;;;26.90;99.90;;;;;;6246041;28;89056;-69
2023/08/25 01:52:22;;;;;;;4.43;2.50;;;26.90;99.90;;;;;;6243257;28;89089;-70
2023/08/25 01:55:24;;;;;;;3.85;2.08;;;27.00;99.90;;;;;;6240278;27;89153;-70
2023/08/25 01:58:28;;;;;;;3.25;1.90;;;26.90;99.90;;;;;;6230083;28;89103;-69
2023/08/25 02:01:31;;;;;;;4.50;2.08;;;26.90;99.90;;;;;;6230059;28;87281;-69
2023/08/25 02:04:33;;;;;;;4.18;2.00;;;26.90;99.90;;;;;;6237025;28;87949;-69
2023/08/25 02:07:35;;;;;;;6.43;2.55;;;26.90;99.90;;;;;;6230348;28;89211;-69
2023/08/25 02:10:37;;;;;;;3.40;1.90;;;26.90;99.90;;;;;;6250912;28;90048;-70
2023/08/25 02:13:40;;;;;;;3.60;1.98;;;26.90;99.90;;;;;;6248616;27;89055;-69
2023/08/25 02:16:42;;;;;;;4.95;2.47;;;26.90;99.90;;;;;;6246080;27;89077;-69
2023/08/25 02:19:44;;;;;;;4.10;2.20;;;26.90;99.90;;;;;;6237522;28;89042;-69
2023/08/25 02:22:46;;;;;;;3.92;2.00;;;26.90;99.90;;;;;;6250145;27;88998;-69
2023/08/25 02:25:48;;;;;;;3.13;1.90;;;26.90;99.90;;;;;;6249632;27;89411;-70
2023/08/25 02:28:52;;;;;;;2.40;2.00;;;26.90;99.90;;;;;;6251062;27;89069;-69
2023/08/25 02:31:54;;;;;;;4.22;2.20;;;26.90;99.90;;;;;;6243667;27;88304;-69
2023/08/25 02:34:56;;;;;;;4.80;2.63;;;26.90;99.90;;;;;;6246518;28;88850;-70
2023/08/25 02:38:00;;;;;;;3.92;2.00;;;26.90;99.90;;;;;;6238377;28;89036;-69
2023/08/25 02:41:02;;;;;;;6.32;2.22;;;26.90;99.90;;;;;;6242095;28;90217;-70
2023/08/25 02:44:05;;;;;;;4.03;2.28;;;26.90;99.90;;;;;;6245637;27;89370;-69
2023/08/25 02:47:07;;;;;;;4.97;2.15;;;26.90;99.90;;;;;;6243906;27;89104;-69
2023/08/25 02:50:10;;;;;;;3.65;1.85;;;26.90;99.90;;;;;;6238121;28;89060;-69
2023/08/25 02:53:12;;;;;;;3.00;2.00;;;26.90;99.90;;;;;;6246515;28;89455;-68
2023/08/25 02:56:14;;;;;;;5.47;1.90;;;26.90;99.90;;;;;;6245714;28;89095;-69
2023/08/25 02:59:17;;;;;;;3.97;1.98;;;26.90;99.90;;;;;;6240299;28;89305;-69
2023/08/25 03:02:19;;;;;;;3.78;2.08;;;26.90;99.90;;;;;;6242647;28;88322;-69
2023/08/25 03:05:22;;;;;;;3.85;2.00;;;26.90;99.90;;;;;;6236868;28;89187;-69
2023/08/25 03:08:24;;;;;;;4.32;2.03;;;26.90;99.90;;;;;;6243751;28;89327;-69
2023/08/25 03:11:26;;;;;;;3.15;2.00;;;26.90;99.90;;;;;;6232704;28;90078;-69
2023/08/25 03:14:30;;;;;;;3.90;2.08;;;26.90;99.90;;;;;;6240857;28;89141;-69
2023/08/25 03:17:32;;;;;;;3.72;2.00;;;26.90;99.90;;;;;;6246158;28;87989;-69
2023/08/25 03:20:34;;;;;;;3.63;1.75;;;26.90;99.90;;;;;;6248014;27;89127;-69
2023/08/25 03:23:36;;;;;;;3.53;1.90;;;26.90;99.90;;;;;;6237228;28;89415;-68
2023/08/25 03:26:38;;;;;;;4.22;2.15;;;26.90;99.90;;;;;;6237490;28;88795;-69
2023/08/25 03:29:44;;;;;;;3.75;2.15;;;26.90;99.90;;;;;;6244950;28;88997;-69
2023/08/25 03:32:46;;;;;;;3.25;2.10;;;26.90;99.90;;;;;;6234148;28;88423;-68
2023/08/25 03:35:48;;;;;;;2.70;1.90;;;26.80;99.90;;;;;;6245230;27;89511;-68
2023/08/25 03:38:50;;;;;;;10.52;2.25;;;26.90;99.90;;;;;;6237651;28;88169;-68
2023/08/25 03:41:52;;;;;;;4.38;2.03;;;26.90;99.90;;;;;;6236350;28;90377;-68
2023/08/25 03:44:55;;;;;;;3.55;2.10;;;26.90;99.90;;;;;;6252565;28;89215;-68
2023/08/25 03:47:57;;;;;;;2.72;2.00;;;26.90;99.90;;;;;;6241170;28;89050;-68
2023/08/25 03:50:59;;;;;;;5.28;2.00;;;26.80;99.90;;;;;;6239222;28;88979;-68
2023/08/25 03:54:01;;;;;;;3.13;1.88;;;26.90;99.90;;;;;;6241206;28;88998;-68
2023/08/25 03:57:06;;;;;;;3.33;2.00;;;26.80;99.90;;;;;;6238911;28;88844;-69
2023/08/25 04:00:10;;;;;;;2.70;2.00;;;26.80;99.90;;;;;;6238761;28;88107;-68
2023/08/25 04:03:12;;;;;;;4.00;1.98;;;26.80;99.90;;;;;;6233457;28;87253;-68
2023/08/25 04:06:14;;;;;;;2.90;1.70;;;26.80;99.90;;;;;;6236781;28;89153;-68
2023/08/25 04:09:16;;;;;;;3.00;1.90;;;26.80;99.90;;;;;;6245581;28;89115;-69
2023/08/25 04:12:18;;;;;;;3.50;2.10;;;26.80;99.90;;;;;;6232558;27;90121;-69
2023/08/25 04:15:22;;;;;;;4.53;2.03;;;26.80;99.90;;;;;;6232178;28;90071;-69
2023/08/25 04:18:24;;;;;;;4.00;2.03;;;26.80;99.90;;;;;;6237110;28;89421;-69
2023/08/25 04:21:26;;;;;;;3.40;1.92;;;26.80;99.90;;;;;;6236838;27;88294;-69
2023/08/25 04:24:29;;;;;;;4.63;1.73;;;26.80;99.90;;;;;;6240263;28;89095;-68
2023/08/25 04:27:31;;;;;;;4.05;2.22;;;26.80;99.90;;;;;;6242465;28;89444;-70
2023/08/25 04:30:34;;;;;;;6.53;2.13;;;26.80;99.90;;;;;;6240156;28;89541;-68
2023/08/25 04:33:36;;;;;;;5.22;2.28;;;26.80;99.90;;;;;;6237997;28;88571;-68
2023/08/25 04:36:39;;;;;;;3.67;2.05;;;26.80;99.90;;;;;;6231872;28;87637;-68
2023/08/25 04:39:41;;;;;;;5.30;2.13;;;26.80;99.90;;;;;;6239797;28;89433;-68
2023/08/25 04:42:43;;;;;;;2.58;1.80;;;26.70;99.90;;;;;;6243911;28;89975;-68
2023/08/25 04:45:47;;;;;;;4.30;2.20;;;26.80;99.90;;;;;;6232835;28;89197;-68
2023/08/25 04:48:49;;;;;;;4.35;2.20;;;26.80;99.90;;;;;;6234605;27;88984;-68
2023/08/25 04:51:51;;;;;;;2.38;1.80;;;26.70;99.90;;;;;;6231729;28;88238;-68
2023/08/25 04:54:53;;;;;;;4.85;2.10;;;26.80;99.90;;;;;;6231092;28;89454;-68
2023/08/25 04:57:55;;;;;;;3.63;2.10;;;26.80;99.90;;;;;;6231786;28;89607;-68
2023/08/25 05:00:59;;;;;;;3.05;2.08;;;26.80;99.90;;;;;;6237744;28;89023;-68
2023/08/25 05:04:01;;;;;;;4.43;1.98;;;26.70;99.90;;;;;;6254129;28;87958;-68
2023/08/25 05:07:03;;;;;;;5.05;1.92;;;26.80;99.90;;;;;;6231361;28;89088;-68
2023/08/25 05:10:06;;;;;;;2.70;1.95;;;26.70;99.90;;;;;;6239377;28;89015;-68
2023/08/25 05:13:08;;;;;;;4.28;1.90;;;26.80;99.90;;;;;;6230668;28;90299;-68
2023/08/25 05:16:12;;;;;;;4.75;1.98;;;26.80;99.90;;;;;;6234029;28;89350;-68
2023/08/25 05:19:14;;;;;;;3.70;1.95;;;26.80;99.90;;;;;;6231341;27;89129;-68
2023/08/25 05:22:16;;;;;;;3.13;2.38;;;26.80;99.90;;;;;;6243998;28;88984;-68
2023/08/25 05:25:20;;;;;;;3.70;1.95;;;26.80;99.90;;;;;;6239634;28;89460;-68
2023/08/25 05:28:22;;;;;;;3.05;1.80;;;26.80;99.90;;;;;;6230775;27;88940;-68
2023/08/25 05:31:27;;;;;;;4.03;2.22;;;26.80;99.90;;;;;;6230644;28;88860;-68
2023/08/25 05:34:31;;;;;;;3.50;2.40;;;26.80;99.90;;;;;;6244102;28;88247;-68
2023/08/25 05:37:34;;;;;;;2.72;1.83;;;26.80;99.90;;;;;;6245501;28;89348;-68
2023/08/25 05:40:36;;;;;;;3.22;1.90;;;26.80;99.90;;;;;;6236300;28;87892;-68
2023/08/25 05:43:38;;;;;;;2.28;1.70;;;26.80;99.90;;;;;;6237646;28;90092;-68
2023/08/25 05:46:41;;;;;;;3.30;2.10;;;26.80;99.90;;;;;;6237291;28;89086;-68
2023/08/25 05:49:43;;;;;;;3.60;2.20;;;26.80;99.90;;;;;;6239103;28;88910;-68
2023/08/25 05:52:47;;;;;;;3.13;1.90;;;26.80;99.90;;;;;;6244012;28;89147;-68
2023/08/25 05:55:50;;;;;;;2.20;1.90;;;26.80;99.90;;;;;;6230771;28;89060;-68
2023/08/25 05:58:52;;;;;;;4.20;2.13;;;26.80;99.90;;;;;;6231566;28;89225;-68
2023/08/25 06:01:56;;;;;;;3.58;1.90;;;26.80;99.90;;;;;;6229847;28;89158;-67
2023/08/25 06:04:58;;;;;;;2.17;1.80;;;26.80;99.90;;;;;;6226934;28;88454;-68
2023/08/25 06:08:00;;;;;;;2.00;1.80;;;26.80;99.90;;;;;;6229754;28;89150;-68
2023/08/25 06:11:02;;;;;;;2.67;2.00;;;26.80;99.90;;;;;;6242226;27;89118;-68
2023/08/25 06:14:04;;;;;;;4.32;2.17;;;26.80;99.90;;;;;;6228799;28;90112;-68
2023/08/25 06:17:07;;;;;;;3.10;2.00;;;26.80;99.90;;;;;;6239205;28;88980;-67
2023/08/25 06:20:11;;;;;;;2.70;2.00;;;26.80;99.90;;;;;;6239799;28;89123;-68
2023/08/25 06:23:14;;;;;;;3.08;2.08;;;26.80;99.90;;;;;;6230243;28;88184;-68
2023/08/25 06:26:17;;;;;;;2.95;2.00;;;26.80;99.90;;;;;;6248055;28;89207;-68
2023/08/25 06:29:19;;;;;;;2.35;1.95;;;26.90;99.90;;;;;;6241217;28;91500;-68
2023/08/25 06:32:23;;;;;;;2.60;1.95;;;26.80;99.90;;;;;;6237724;28;87966;-68
2023/08/25 06:35:26;;;;;;;2.40;2.00;;;26.80;99.90;;;;;;6242921;28;87168;-68
2023/08/25 06:38:28;;;;;;;2.55;1.90;;;26.90;99.90;;;;;;6234121;28;89125;-68
2023/08/25 06:41:30;;;;;;;2.92;2.20;;;26.90;99.90;;;;;;6236845;28;89007;-68
2023/08/25 06:44:32;;;;;;;2.50;2.08;;;26.90;99.90;;;;;;6228584;28;89218;-68
2023/08/25 06:47:35;;;;;;;2.20;1.83;;;26.90;99.90;;;;;;6235264;28;89074;-68
2023/08/25 06:50:37;;;;;;;2.30;1.90;;;26.80;99.90;;;;;;6248504;28;89366;-68
2023/08/25 06:53:39;;;;;;;2.55;2.03;;;26.90;99.90;;;;;;6235581;28;89348;-68
2023/08/25 06:56:41;;;;;;;2.55;2.05;;;26.90;99.90;;;;;;6237204;28;87982;-68
2023/08/25 06:59:43;;;;;;;2.88;2.00;;;26.80;99.90;;;;;;6234805;28;88347;-67
2023/08/25 07:02:46;;;;;;;3.08;2.10;;;26.80;99.90;;;;;;6241265;28;89058;-68
2023/08/25 07:05:50;;;;;;;2.80;2.22;;;26.90;99.90;;;;;;6238022;28;87332;-68
2023/08/25 07:08:52;;;;;;;2.50;2.05;;;26.90;99.90;;;;;;6235175;28;89091;-67
2023/08/25 07:11:54;;;;;;;2.30;2.10;;;26.90;99.90;;;;;;6236289;28;88853;-68
2023/08/25 07:14:56;;;;;;;2.30;1.90;;;26.80;99.90;;;;;;6238915;28;89013;-67
2023/08/25 07:18:00;;;;;;;2.90;2.25;;;26.90;99.90;;;;;;6248861;28;88729;-67
2023/08/25 07:21:06;;;;;;;2.88;2.28;;;26.80;99.90;;;;;;6238686;28;89397;-68
2023/08/25 07:24:08;;;;;;;2.67;2.08;;;26.90;99.90;;;;;;6245161;27;89483;-68
2023/08/25 07:27:11;;;;;;;2.15;1.80;;;26.90;99.90;;;;;;6246879;28;89558;-68
2023/08/25 07:30:13;;;;;;;1.90;1.80;;;26.90;99.90;;;;;;6241821;28;89172;-68
2023/08/25 07:33:16;;;;;;;2.92;1.98;;;26.90;99.90;;;;;;6252104;28;88009;-68
2023/08/25 07:36:19;;;;;;;3.13;2.00;;;26.90;99.90;;;;;;6241493;28;88360;-68
2023/08/25 07:39:21;;;;;;;3.05;2.53;;;26.90;99.90;;;;;;6250289;28;89497;-68
2023/08/25 07:42:23;;;;;;;3.15;2.10;;;26.90;99.90;;;;;;6241201;28;89364;-68
2023/08/25 07:45:25;;;;;;;2.20;1.98;;;26.90;99.90;;;;;;6236957;28;90042;-68
2023/08/25 07:48:28;;;;;;;2.60;2.10;;;26.80;99.90;;;;;;6234157;28;89286;-68
2023/08/25 07:51:31;;;;;;;3.13;2.40;;;26.90;99.90;;;;;;6246742;28;89379;-68
2023/08/25 07:54:33;;;;;;;3.05;2.30;;;26.90;99.90;;;;;;6246039;28;89343;-68
2023/08/25 08:01:14;;;;;;;2.33;1.90;;;26.90;99.90;;;;;;6202237;28;87664;-68
2023/08/25 08:04:18;;;;;;;3.22;2.17;;;26.90;99.90;;;;;;6236645;28;89059;-68
2023/08/25 08:07:20;;;;;;;2.28;2.00;;;26.90;99.90;;;;;;6248937;28;88273;-68
2023/08/25 08:10:22;;;;;;;2.20;2.00;;;26.90;99.90;;;;;;6233078;28;89417;-69
2023/08/25 08:13:23;;;;;;;2.40;2.10;;;26.90;99.90;;;;;;6232390;28;88968;-68
2023/08/25 08:16:26;;;;;;;2.20;2.00;;;26.90;99.90;;;;;;6240609;28;90116;-68
2023/08/25 08:19:29;;;;;;;2.53;2.20;;;26.90;99.90;;;;;;6246186;27;89547;-68
2023/08/25 08:22:31;;;;;;;2.40;2.10;;;26.90;99.90;;;;;;6234187;28;89028;-68
2023/08/25 08:25:36;;;;;;;2.80;2.10;;;26.90;99.90;;;;;;6243345;28;89366;-68
2023/08/25 08:28:38;;;;;;;3.03;2.10;;;27.00;99.90;;;;;;6236164;27;88993;-68
2023/08/25 08:31:41;;;;;;;2.10;1.90;;;26.90;99.90;;;;;;6230835;28;89102;-68
2023/08/25 08:34:44;;;;;;;2.20;2.00;;;27.00;99.90;;;;;;6243491;28;89390;-68
2023/08/25 08:37:46;;;;;;;2.50;2.30;;;26.90;99.90;;;;;;6236501;27;88366;-67
2023/08/25 08:40:49;;;;;;;2.13;1.92;;;27.00;99.90;;;;;;6233453;28;88962;-68
2023/08/25 08:43:53;;;;;;;2.20;2.00;;;27.00;99.90;;;;;;6234709;28;89553;-68
2023/08/25 08:46:57;;;;;;;2.20;2.00;;;26.90;99.90;;;;;;6230361;28;89982;-67
2023/08/25 08:50:00;;;;;;;3.33;2.45;;;27.00;99.90;;;;;;6235681;28;88039;-67
2023/08/25 08:53:04;;;;;;;2.65;2.38;;;27.00;99.90;;;;;;6232004;28;89230;-67
2023/08/25 08:56:07;;;;;;;2.15;1.95;;;27.00;99.90;;;;;;6235431;28;89020;-68
2023/08/25 08:59:09;;;;;;;2.13;1.92;;;26.90;99.90;;;;;;6231139;28;91163;-68
2023/08/25 09:02:14;;;;;;;2.25;2.05;;;26.90;99.90;;;;;;6229922;28;89193;-68
2023/08/25 09:05:21;;;;;;;2.38;2.00;;;27.00;99.90;;;;;;6240619;28;88044;-67
2023/08/25 09:08:23;;;;;;;2.40;2.20;;;26.90;99.90;;;;;;6248012;27;87714;-68
2023/08/25 09:11:25;;;;;;;2.42;2.22;;;27.00;99.90;;;;;;6248167;27;89324;-68
2023/08/25 09:14:30;;;;;;;2.05;1.85;;;27.00;99.90;;;;;;6230377;28;88984;-67
2023/08/25 09:17:34;;;;;;;2.15;1.95;;;27.00;99.90;;;;;;6231725;27;88906;-67
2023/08/25 09:20:39;;;;;;;2.90;2.45;;;27.00;99.90;;;;;;6240059;28;89144;-68
2023/08/25 09:23:52;;;;;;;3.97;2.10;;;26.90;99.90;;;;;;6238895;28;89360;-67
2023/08/25 09:26:54;;;;;;;3.22;2.20;;;27.00;99.90;;;;;;6239395;28;88994;-68
2023/08/25 09:30:00;;;;;;;3.22;2.30;;;27.00;99.90;;;;;;6240509;28;89123;-67
2023/08/25 09:33:03;;;;;;;3.08;2.47;;;26.90;99.90;;;;;;6253510;27;89197;-67
2023/08/25 09:36:07;;;;;;;3.13;2.08;;;27.00;99.90;;;;;;6237001;27;87981;-68
2023/08/25 09:39:09;;;;;;;2.40;2.20;;;27.00;99.90;;;;;;6242742;28;87446;-67
2023/08/25 09:42:12;;;;;;;2.72;2.13;;;27.00;99.90;;;;;;6249229;28;88965;-68
2023/08/25 09:45:14;;;;;;;2.10;1.90;;;27.00;99.90;;;;;;6242885;28;89149;-67
2023/08/25 09:48:17;;;;;;;3.58;2.28;;;27.00;99.90;;;;;;6230050;28;89294;-68
2023/08/25 09:51:21;;;;;;;3.67;2.00;;;27.00;99.90;;;;;;6231421;28;89110;-68
2023/08/25 09:54:23;;;;;;;3.17;1.80;;;27.00;99.90;;;;;;6234208;28;89059;-68
2023/08/25 09:57:25;;;;;;;2.30;2.10;;;27.00;99.90;;;;;;6240028;28;89020;-68
2023/08/25 10:00:28;;;;;;;2.70;2.13;;;27.10;99.90;;;;;;6241621;28;89884;-67
2023/08/25 10:03:31;;;;;;;2.17;1.98;;;27.00;99.90;;;;;;6232448;28;88981;-68
2023/08/25 10:06:36;;;;;;;2.20;2.00;;;27.00;99.90;;;;;;6240038;28;89140;-67
2023/08/25 10:09:37;;;;;;;2.92;2.20;;;27.00;99.90;;;;;;6244990;28;88299;-67
2023/08/25 10:12:42;;;;;;;3.40;2.50;;;27.10;99.90;;;;;;6229392;28;89166;-68
2023/08/25 10:15:45;;;;;;;2.60;2.40;;;27.10;99.90;;;;;;6233910;28;89021;-67
2023/08/25 10:18:49;;;;;;;2.20;2.00;;;27.00;99.90;;;;;;6242873;28;90103;-67
2023/08/25 10:21:54;;;;;;;2.28;2.05;;;27.10;99.90;;;;;;6238955;28;89265;-68
2023/08/25 10:25:03;;;;;;;2.20;2.00;;;27.00;99.90;;;;;;6243936;27;89045;-67
2023/08/25 10:28:08;;;;;;;3.28;2.10;;;27.10;99.90;;;;;;6235193;28;89282;-68
2023/08/25 10:31:10;;;;;;;2.40;1.98;;;27.00;99.90;;;;;;6243621;27;89067;-67
2023/08/25 10:34:30;;;;;;;2.45;2.10;;;27.00;99.90;;;;;;6244133;27;89379;-67
2023/08/25 10:37:37;;;;;;;2.47;2.22;;;27.00;99.90;;;;;;6245326;28;89070;-67
2023/08/25 10:40:42;;;;;;;2.50;2.30;;;27.10;99.90;;;;;;6242617;28;88455;-67
2023/08/25 10:43:51;;;;;;;2.28;2.08;;;27.10;99.90;;;;;;6243977;28;87086;-68
2023/08/25 10:47:00;;;;;;;2.60;2.40;;;27.10;99.90;;;;;;6243527;27;89128;-67
2023/08/25 10:50:04;;;;;;;2.63;2.30;;;27.10;99.90;;;;;;6240107;28;90015;-67
2023/08/25 10:53:35;;;;;;;2.58;2.30;;;27.10;99.90;;;;;;6235506;28;89389;-67
2023/08/25 10:56:39;;;;;;;2.75;2.20;;;27.10;99.90;;;;;;6246919;28;88947;-68
2023/08/25 10:59:41;;;;;;;2.45;2.22;;;27.10;99.90;;;;;;6242562;28;89682;-67
2023/08/25 11:02:43;;;;;;;2.45;2.25;;;27.10;99.90;;;;;;6232726;28;89383;-67
2023/08/25 11:05:45;;;;;;;2.38;2.17;;;27.10;99.90;;;;;;6233927;28;89062;-68
2023/08/25 11:08:57;;;;;;;3.00;2.28;;;27.10;99.90;;;;;;6237474;28;88932;-68
2023/08/25 11:12:01;;;;;;;2.53;2.30;;;27.10;99.90;;;;;;6243417;28;88853;-68
2023/08/25 11:15:03;;;;;;;2.50;2.30;;;27.10;99.90;;;;;;6233779;28;89515;-68
2023/08/25 11:18:07;;;;;;;2.53;2.20;;;27.00;99.90;;;;;;6241679;28;88292;-68
2023/08/25 11:21:09;;;;;;;3.15;2.47;;;27.10;99.90;;;;;;6239446;27;89999;-68
2023/08/25 11:24:23;;;;;;;2.50;2.30;;;27.10;99.90;;;;;;6239308;28;89330;-68
2023/08/25 11:27:28;;;;;;;2.42;2.22;;;27.10;99.90;;;;;;6248547;28;89453;-68
2023/08/25 11:30:33;;;;;;;2.35;2.15;;;27.10;99.90;;;;;;6249081;28;89948;-68
2023/08/25 11:33:36;;;;;;;2.60;2.40;;;27.10;99.90;;;;;;6235546;28;89503;-68
2023/08/25 11:36:38;;;;;;;2.50;2.30;;;27.10;99.90;;;;;;6235088;27;88993;-68
2023/08/25 11:39:44;;;;;;;2.30;2.10;;;27.10;99.90;;;;;;6235621;28;89025;-68
2023/08/25 11:42:47;;;;;;;2.33;2.13;;;27.10;99.90;;;;;;6239450;27;88436;-68
2023/08/25 11:45:49;;;;;;;2.30;2.10;;;27.10;99.90;;;;;;6247769;28;89026;-68
2023/08/25 11:48:53;;;;;;;2.47;2.28;;;27.10;99.90;;;;;;6248528;27;89388;-68
2023/08/25 11:51:55;;;;;;;2.63;2.38;;;27.10;99.90;;;;;;6232301;28;90125;-68
2023/08/25 11:54:58;;;;;;;2.63;2.35;;;27.10;99.90;;;;;;6243322;28;89328;-68
2023/08/25 11:58:07;;;;;;;2.55;2.22;;;27.10;99.90;;;;;;6233214;28;89139;-68
2023/08/25 12:01:12;;;;;;;3.03;2.63;;;27.10;99.90;;;;;;6234751;28;88971;-68
2023/08/25 12:04:25;;;;;;;2.72;2.40;;;27.10;99.90;;;;;;6239491;28;89069;-65
2023/08/25 12:07:28;;;;;;;2.50;2.30;;;27.10;99.90;;;;;;6235011;28;89474;-67
2023/08/25 12:10:36;;;;;;;2.30;2.10;;;27.10;99.90;;;;;;6238471;28;89034;-68
2023/08/25 12:13:43;;;;;;;2.63;2.30;;;27.20;99.90;;;;;;6233312;28;88663;-68
2023/08/25 12:16:45;;;;;;;2.88;2.33;;;27.10;99.90;;;;;;6237006;27;89418;-68
2023/08/25 12:19:47;;;;;;;2.80;2.50;;;27.20;99.90;;;;;;6247784;28;89656;-68
2023/08/25 12:22:54;;;;;;;2.55;2.35;;;27.10;99.90;;;;;;6246203;28;90214;-68
2023/08/25 12:25:57;;;;;;;2.53;2.30;;;27.10;99.90;;;;;;6239180;28;88962;-68
2023/08/25 12:28:59;;;;;;;2.70;2.50;;;27.20;99.90;;;;;;6231892;28;89277;-67
2023/08/25 12:32:02;;;;;;;2.47;2.20;;;27.20;99.90;;;;;;6243981;27;89258;-68
2023/08/25 12:35:04;;;;;;;2.65;2.35;;;27.20;99.90;;;;;;6247058;28;89352;-68
2023/08/25 12:38:06;;;;;;;2.70;2.13;;;27.20;99.90;;;;;;6232116;28;89136;-67
2023/08/25 12:41:09;;;;;;;2.60;2.40;;;27.20;99.90;;;;;;6242691;28;87982;-67
2023/08/25 12:44:11;;;;;;;2.63;2.40;;;27.20;99.90;;;;;;6243037;28;88306;-68
2023/08/25 12:47:13;;;;;;;2.53;2.33;;;27.10;99.90;;;;;;6234379;28;89057;-68
2023/08/25 12:50:15;;;;;;;2.40;2.20;;;27.20;99.90;;;;;;6233368;28;89144;-68
2023/08/25 12:53:17;;;;;;;3.25;2.92;;;27.20;99.90;;;;;;6231747;28;90052;-68
2023/08/25 12:56:21;;;;;;;3.10;2.80;;;27.20;99.90;;;;;;6237948;28;89529;-68
2023/08/25 12:59:23;;;;;;;3.20;2.67;;;27.20;99.90;;;;;;6235761;28;87963;-68
2023/08/25 13:02:25;;;;;;;2.95;2.42;;;27.20;99.90;;;;;;6251506;27;89372;-68
2023/08/25 13:05:27;;;;;;;2.70;2.50;;;27.20;99.90;;;;;;6230920;28;88876;-68
2023/08/25 13:08:29;;;;;;;3.60;2.60;;;27.20;99.90;;;;;;6246820;28;88360;-68
2023/08/25 13:11:32;;;;;;;3.08;2.70;;;27.20;99.90;;;;;;6239229;28;89060;-68
2023/08/25 13:14:34;;;;;;;2.70;2.47;;;27.20;99.90;;;;;;6240567;28;88715;-68
2023/08/25 13:17:36;;;;;;;2.70;2.47;;;27.20;99.90;;;;;;6234971;28;89387;-67
2023/08/25 13:20:38;;;;;;;3.10;2.80;;;27.20;99.90;;;;;;6240773;28;89120;-68
2023/08/25 13:23:40;;;;;;;2.97;2.50;;;27.20;99.90;;;;;;6237750;28;90044;-68
2023/08/25 13:26:43;;;;;;;3.55;2.80;;;27.20;99.90;;;;;;6240093;27;89105;-68
2023/08/25 13:29:45;;;;;;;3.50;3.10;;;27.20;99.90;;;;;;6235448;28;89084;-67
2023/08/25 13:32:47;;;;;;;3.28;2.83;;;27.20;99.90;;;;;;6239429;28;89117;-68
2023/08/25 13:35:50;;;;;;;3.20;2.67;;;27.20;99.90;;;;;;6245623;27;89058;-68
2023/08/25 13:38:52;;;;;;;4.57;2.55;;;27.20;99.90;;;;;;6236034;27;89058;-68
2023/08/25 13:41:56;;;;;;;3.13;2.60;;;27.20;99.90;;;;;;6229927;28;89260;-68
2023/08/25 13:44:58;;;;;;;2.80;2.60;;;27.20;99.90;;;;;;6240783;27;88305;-68
2023/08/25 13:48:00;;;;;;;2.78;2.58;;;27.20;99.90;;;;;;6243634;28;89152;-67
2023/08/25 13:51:03;;;;;;;2.92;2.72;;;27.20;99.90;;;;;;6240166;28;87653;-68
2023/08/25 13:54:05;;;;;;;3.28;2.97;;;27.20;99.90;;;;;;6233407;28;90017;-67
2023/08/25 13:57:08;;;;;;;3.30;3.00;;;27.20;99.90;;;;;;6239494;28;89138;-68
2023/08/25 14:00:11;;;;;;;3.10;2.80;;;27.20;99.90;;;;;;6234910;27;89243;-68
2023/08/25 14:03:13;;;;;;;2.92;2.63;;;27.20;99.90;;;;;;6242663;27;89350;-68
2023/08/25 14:06:15;;;;;;;3.53;3.22;;;27.20;99.90;;;;;;6243646;27;89303;-69
2023/08/25 14:09:18;;;;;;;4.00;2.97;;;27.20;99.90;;;;;;6247834;27;88971;-69
2023/08/25 14:12:27;;;;;;;3.60;2.72;;;27.20;99.90;;;;;;6236068;28;89124;-69
2023/08/25 14:15:29;;;;;;;3.30;3.00;;;27.20;99.90;;;;;;6241995;28;88330;-69
2023/08/25 14:18:31;;;;;;;3.75;2.70;;;27.20;99.90;;;;;;6254753;28;90255;-69
2023/08/25 14:21:33;;;;;;;3.10;2.70;;;27.30;99.90;;;;;;6238933;27;89038;-69
2023/08/25 14:24:36;;;;;;;3.88;2.70;;;27.20;99.90;;;;;;6250691;27;90131;-69
2023/08/25 14:27:39;;;;;;;4.88;3.05;;;27.30;99.90;;;;;;6243254;27;89425;-69
2023/08/25 14:30:41;;;;;;;13.70;5.13;;;27.30;99.90;;;;;;6246409;27;89141;-68
2023/08/25 14:33:43;;;;;;;19.35;7.75;;;27.30;99.90;;;;;;6239716;27;89032;-69
2023/08/25 14:36:45;;;;;;;37.97;11.55;;;27.30;99.90;;;;;;6242841;27;87957;-69
2023/08/25 14:39:47;;;;;;;26.13;10.05;;;27.30;99.90;;;;;;6237437;27;88956;-70
2023/08/25 14:42:52;;;;;;;25.00;8.73;;;27.30;99.90;;;;;;6243711;27;89332;-70
2023/08/25 14:45:54;;;;;;;25.75;8.80;;;27.30;99.90;;;;;;6254717;27;88347;-69
2023/08/25 14:48:56;;;;;;;22.63;8.80;;;27.30;99.90;;;;;;6236211;27;89010;-69
2023/08/25 14:51:58;;;;;;;25.15;12.38;;;27.30;99.90;;;;;;6242048;27;89365;-69
2023/08/25 14:55:00;;;;;;;21.05;8.40;;;27.40;99.90;;;;;;6249150;27;88758;-69
2023/08/25 14:58:04;;;;;;;15.93;7.40;;;27.40;99.90;;;;;;6239239;27;88708;-69
2023/08/25 15:01:06;;;;;;;18.13;7.60;;;27.40;99.90;;;;;;6242588;27;89016;-69
2023/08/25 15:04:08;;;;;;;15.35;6.55;;;27.50;99.90;;;;;;6250784;27;88989;-70
2023/08/25 15:07:10;;;;;;;17.83;6.93;;;27.50;99.90;;;;;;6240862;27;90977;-69
2023/08/25 15:10:12;;;;;;;16.17;7.07;;;27.60;99.90;;;;;;6235386;27;90692;-69
2023/08/25 15:13:16;;;;;;;16.85;6.70;;;27.50;99.90;;;;;;6237655;27;89846;-69
2023/08/25 15:16:18;;;;;;;14.70;6.47;;;27.50;99.90;;;;;;6239462;27;88300;-69
2023/08/25 15:19:20;;;;;;;15.75;6.65;;;27.60;99.90;;;;;;6249449;27;89088;-70
2023/08/25 15:22:23;;;;;;;15.68;6.72;;;27.60;99.90;;;;;;6234376;28;87945;-70
2023/08/25 15:25:25;;;;;;;16.80;7.07;;;27.60;99.90;;;;;;6245610;27;90242;-69
2023/08/25 15:28:30;;;;;;;13.70;6.30;;;27.60;99.90;;;;;;6233860;28;89373;-69
2023/08/25 15:31:32;;;;;;;12.68;6.38;;;27.60;99.90;;;;;;6234481;28;89068;-69
2023/08/25 15:34:34;;;;;;;12.43;5.85;;;27.60;99.90;;;;;;6232863;28;89012;-70
2023/08/25 15:37:36;;;;;;;12.88;5.55;;;27.60;99.90;;;;;;6237276;28;89384;-69
2023/08/25 15:40:39;;;;;;;15.27;6.28;;;27.60;99.90;;;;;;6234081;27;89049;-69
2023/08/25 15:43:42;;;;;;;11.65;5.60;;;27.60;99.90;;;;;;6243111;28;88016;-69
2023/08/25 15:46:44;;;;;;;13.25;5.70;;;27.60;99.90;;;;;;6234213;28;88800;-69
2023/08/25 15:49:46;;;;;;;13.63;6.38;;;27.60;99.90;;;;;;6233058;28;88073;-69
2023/08/25 15:52:48;;;;;;;11.93;5.70;;;27.60;99.90;;;;;;6234347;28;90484;-69
2023/08/25 15:55:51;;;;;;;12.80;6.03;;;27.50;99.90;;;;;;6232539;28;90076;-69